Stena Germanica — SKPZ — position and weather

sailwx.info

Track history (hours):
 
Tides and Currents Weather Stations Pressure Air Temp Water Temp Dewpoint Dewpoint Depression Visibility Wind Speed Wind Dir Waves Ship Positions

Stena Germanica

Last reported at 2017-Oct-19 21:31 UTC. Time now 2017-Oct-19 21:44 UTC.
Position N 55°46' E 016°20'.

Length 176 m; draft 6.7 m.

Type: Ship (hazmat cat A). MMSI: 265292000.

Date/timePositionNaut miles runAvg speedWind from/ knotsBaromVisibWave heightAir tempDewpointWater temp
2017-Oct-19 21:31N 55°46' E 016°20'917.4
2017-Oct-19 21:00N 55°50' E 016°07'917.3
2017-Oct-19 20:31N 55°56' E 015°56'917.2
2017-Oct-19 20:01N 56°01' E 015°43'714.3
2017-Oct-19 19:31N 56°06' E 015°34'5 9.0
2017-Oct-19 19:00N 56°10' E 015°38'0 0.0
2017-Oct-19 18:30N 56°10' E 015°38'0 0.0
2017-Oct-19 18:00N 56°10' E 015°38'0 0.0
2017-Oct-19 17:30N 56°10' E 015°38'4 8.4
2017-Oct-19 17:00N 56°06' E 015°34'815.2
2017-Oct-19 16:31N 56°01' E 015°44'917.1
2017-Oct-19 16:01N 55°56' E 015°56'917.5
2017-Oct-19 15:31N 55°51' E 016°09'917.6
2017-Oct-19 15:00N 55°46' E 016°22'917.1
2017-Oct-19 14:31N 55°41' E 016°35'917.0
2017-Oct-19 14:00N 55°37' E 016°48'916.8
2017-Oct-19 13:29N 55°32' E 017°00'817.1
2017-Oct-19 13:01N 55°28' E 017°13'1117.4
2017-Oct-19 12:23N 55°22' E 017°29'717.2
2017-Oct-19 11:59N 55°18' E 017°39'917.2
2017-Oct-19 11:28N 55°13' E 017°52'817.2
2017-Oct-19 11:00N 55°09' E 018°03'917.4
2017-Oct-19 10:30N 55°04' E 018°16'917.2
2017-Oct-19 10:00N 54°59' E 018°29'917.7
2017-Oct-19 09:30N 54°53' E 018°40'917.6
2017-Oct-19 09:01N 54°46' E 018°49'816.9
2017-Oct-19 08:31N 54°39' E 018°57'917.7
2017-Oct-19 08:00N 54°32' E 018°48'815.5
2017-Oct-19 07:30N 54°32' E 018°35'3 5.3
2017-Oct-19 07:00N 54°33' E 018°30'0 0.0
2017-Oct-19 06:30N 54°33' E 018°30'0 0.0
2017-Oct-19 06:00N 54°33' E 018°30'0 0.0
2017-Oct-19 05:30N 54°33' E 018°30'2 3.2
2017-Oct-19 05:00N 54°32' E 018°33'612.0
2017-Oct-19 04:30N 54°32' E 018°43'815.5
2017-Oct-19 04:00N 54°37' E 018°54'714.3
2017-Oct-19 03:30N 54°44' E 018°51'917.3
2017-Oct-19 03:00N 54°51' E 018°42'917.2
2017-Oct-19 02:30N 54°58' E 018°32'917.1
2017-Oct-19 02:00N 55°02' E 018°20'7217.5
2017-Oct-18 21:51N 55°42' E 016°33'617.8
2017-Oct-18 21:30N 55°46' E 016°24'917.5
2017-Oct-18 21:00N 55°50' E 016°11'917.6
2017-Oct-18 20:30N 55°55' E 015°58'917.3
2017-Oct-18 20:00N 55°60' E 015°45'815.7
2017-Oct-18 19:30N 56°05' E 015°34'611.2
2017-Oct-18 19:00N 56°10' E 015°38'0 0.0
2017-Oct-18 18:29N 56°10' E 015°38'0 0.0
2017-Oct-18 17:59N 56°10' E 015°38'0 0.0
2017-Oct-18 17:30N 56°10' E 015°38'4 8.8
2017-Oct-18 17:01N 56°06' E 015°34'816.2
2017-Oct-18 16:30N 56°00' E 015°44'918.0
2017-Oct-18 16:00N 55°55' E 015°57'918.1
2017-Oct-18 15:30N 55°50' E 016°11'918.3
2017-Oct-18 15:00N 55°46' E 016°25'6917.7
2017-Oct-18 11:08N 55°08' E 018°06'317.2
2017-Oct-18 10:58N 55°06' E 018°10'817.5
2017-Oct-18 10:30N 55°02' E 018°22'917.5
2017-Oct-18 10:00N 54°57' E 018°34'917.4
2017-Oct-18 09:30N 54°52' E 018°47'917.2
2017-Oct-18 09:00N 54°45' E 018°56'816.0
2017-Oct-18 08:30N 54°37' E 018°55'816.4
2017-Oct-18 08:00N 54°32' E 018°44'713.3
2017-Oct-18 07:30N 54°32' E 018°33'2 2.8
2017-Oct-18 06:58N 54°33' E 018°30'0 0.0
2017-Oct-18 06:28N 54°33' E 018°30'0 0.0
2017-Oct-18 05:58N 54°33' E 018°30'0 0.0
2017-Oct-18 05:29N 54°33' E 018°30'1 3.1
2017-Oct-18 05:01N 54°32' E 018°33'612.4
2017-Oct-18 04:30N 54°32' E 018°43'714.7
2017-Oct-18 04:01N 54°37' E 018°54'713.9
2017-Oct-18 03:30N 54°43' E 018°52'816.2
2017-Oct-18 03:00N 54°50' E 018°43'816.7
2017-Oct-18 02:30N 54°56' E 018°34'916.8
2017-Oct-18 02:00N 55°01' E 018°22'1217.5
2017-Oct-18 01:20N 55°07' E 018°05'617.3
2017-Oct-18 01:01N 55°11' E 017°57'1218.0
2017-Oct-18 00:20N 55°17' E 017°39'4218.4
2017-Oct-17 22:03N 55°40' E 016°37'118.4
2017-Oct-17 22:00N 55°40' E 016°35'918.4
2017-Oct-17 21:31N 55°45' E 016°22'918.3
2017-Oct-17 21:01N 55°51' E 016°09'918.2
2017-Oct-17 20:31N 55°56' E 015°56'918.0
2017-Oct-17 20:00N 56°01' E 015°42'714.2
2017-Oct-17 19:31N 56°07' E 015°35'3 6.3
2017-Oct-17 18:58N 56°10' E 015°38'0 0.0
2017-Oct-17 18:28N 56°10' E 015°38'0 0.0
2017-Oct-17 17:58N 56°10' E 015°38'0 0.0
2017-Oct-17 17:29N 56°10' E 015°38'4 8.7
2017-Oct-17 17:00N 56°06' E 015°35'815.1
2017-Oct-17 16:30N 56°01' E 015°43'816.8
2017-Oct-17 16:00N 55°56' E 015°55'816.8
2017-Oct-17 15:30N 55°51' E 016°08'816.8
2017-Oct-17 15:00N 55°46' E 016°21'917.1
2017-Oct-17 14:30N 55°42' E 016°34'1917.1
2017-Oct-17 13:25N 55°32' E 017°01'817.1
2017-Oct-17 12:58N 55°27' E 017°13'817.4
2017-Oct-17 12:30N 55°23' E 017°24'917.2
2017-Oct-17 12:00N 55°18' E 017°37'917.1
2017-Oct-17 11:30N 55°14' E 017°50'1317.1
2017-Oct-17 10:47N 55°07' E 018°08'617.3
2017-Oct-17 10:25N 55°03' E 018°17'717.3
2017-Oct-17 10:00N 55°00' E 018°28'917.3
2017-Oct-17 09:30N 54°55' E 018°40'917.9
2017-Oct-17 09:00N 54°48' E 018°50'917.7
2017-Oct-17 08:30N 54°41' E 018°57'917.7
2017-Oct-17 08:00N 54°33' E 018°50'815.4
2017-Oct-17 07:30N 54°32' E 018°37'4 7.1
2017-Oct-17 06:58N 54°33' E 018°30'0 0.0
2017-Oct-17 06:28N 54°33' E 018°30'0 0.0
2017-Oct-17 05:58N 54°33' E 018°30'0 0.0
2017-Oct-17 05:29N 54°33' E 018°30'2 3.4
2017-Oct-17 05:01N 54°32' E 018°33'713.3
2017-Oct-17 04:31N 54°32' E 018°44'714.9
2017-Oct-17 04:01N 54°37' E 018°54'816.8
2017-Oct-17 03:30N 54°46' E 018°50'917.6
2017-Oct-17 03:01N 54°53' E 018°41'917.3
2017-Oct-17 02:30N 54°58' E 018°30'917.2
2017-Oct-17 01:59N 55°04' E 018°17'817.3
2017-Oct-17 01:30N 55°08' E 018°05'817.0
2017-Oct-17 01:01N 55°13' E 017°53'1417.4
2017-Oct-17 00:11N 55°21' E 017°32'2916.9
2017-Oct-16 22:30N 55°36' E 016°49'817.0
2017-Oct-16 22:00N 55°40' E 016°36'817.0
2017-Oct-16 21:31N 55°45' E 016°24'917.3
2017-Oct-16 21:01N 55°51' E 016°13'816.5
2017-Oct-16 20:31N 55°55' E 016°00'816.5
2017-Oct-16 20:01N 55°59' E 015°47'816.5
2017-Oct-16 19:31N 56°04' E 015°35'612.5
2017-Oct-16 19:01N 56°10' E 015°37'0 0.6
2017-Oct-16 18:30N 56°10' E 015°38'0 0.0
2017-Oct-16 18:00N 56°10' E 015°38'0 0.0
2017-Oct-16 17:30N 56°10' E 015°38'0 0.0
2017-Oct-16 17:00N 56°10' E 015°38'5 9.5
2017-Oct-16 16:31N 56°06' E 015°34'815.5
2017-Oct-16 16:00N 56°00' E 015°44'816.8
2017-Oct-16 15:30N 55°56' E 015°57'917.5
2017-Oct-16 15:00N 55°51' E 016°10'1818.2
2017-Oct-16 14:00N 55°41' E 016°37'1018.1
2017-Oct-16 13:27N 55°35' E 016°51'817.9
2017-Oct-16 13:00N 55°31' E 017°03'1118.2
2017-Oct-16 12:22N 55°25' E 017°20'1218.4
2017-Oct-16 11:42N 55°18' E 017°38'1218.2
2017-Oct-16 11:03N 55°11' E 017°56'118.0
2017-Oct-16 11:00N 55°11' E 017°57'1217.9
2017-Oct-16 10:22N 55°05' E 018°14'618.0
2017-Oct-16 10:00N 55°01' E 018°24'918.0
2017-Oct-16 09:30N 54°56' E 018°36'918.0
2017-Oct-16 09:00N 54°49' E 018°46'918.6
2017-Oct-16 08:30N 54°42' E 018°56'917.7
2017-Oct-16 08:00N 54°34' E 018°51'815.7
2017-Oct-16 07:30N 54°32' E 018°38'4 9.0
2017-Oct-16 07:01N 54°33' E 018°30'0 0.0
2017-Oct-16 06:30N 54°33' E 018°30'0 0.0
2017-Oct-16 06:00N 54°33' E 018°30'0 0.0
2017-Oct-16 05:30N 54°33' E 018°30'1 3.0
2017-Oct-16 05:00N 54°32' E 018°33'612.4
2017-Oct-16 04:30N 54°32' E 018°43'714.9
2017-Oct-16 04:00N 54°37' E 018°53'714.0
2017-Oct-16 03:31N 54°44' E 018°52'816.6
2017-Oct-16 03:00N 54°50' E 018°42'816.8
2017-Oct-16 02:30N 54°57' E 018°33'917.0
2017-Oct-16 02:00N 55°02' E 018°22'917.1
2017-Oct-16 01:30N 55°07' E 018°09'917.2
2017-Oct-16 01:00N 55°11' E 017°57'1017.5
2017-Oct-16 00:25N 55°17' E 017°42'817.5
2017-Oct-15 23:59N 55°21' E 017°30'3717.0
2017-Oct-15 21:49N 55°41' E 016°35'517.4
2017-Oct-15 21:30N 55°44' E 016°27'917.2
2017-Oct-15 21:00N 55°49' E 016°15'917.3
2017-Oct-15 20:30N 55°54' E 016°02'917.4
2017-Oct-15 20:00N 55°58' E 015°49'917.2
2017-Oct-15 19:30N 56°03' E 015°36'713.0
2017-Oct-15 19:00N 56°10' E 015°37'0 0.9
2017-Oct-15 18:30N 56°10' E 015°38'0 0.0
2017-Oct-15 18:00N 56°10' E 015°38'0 0.0
2017-Oct-15 17:30N 56°10' E 015°38'5 9.6
2017-Oct-15 17:00N 56°06' E 015°34'714.2
2017-Oct-15 16:30N 56°01' E 015°43'815.4
2017-Oct-15 16:00N 55°56' E 015°55'816.6
2017-Oct-15 15:30N 55°52' E 016°07'917.3
2017-Oct-15 15:00N 55°47' E 016°20'1717.3
2017-Oct-15 14:00N 55°38' E 016°46'917.0
2017-Oct-15 13:29N 55°34' E 016°60'817.0
2017-Oct-15 13:00N 55°29' E 017°12'917.2
2017-Oct-15 12:30N 55°25' E 017°25'917.4
2017-Oct-15 12:00N 55°20' E 017°38'917.2
2017-Oct-15 11:30N 55°15' E 017°50'917.3
2017-Oct-15 11:00N 55°10' E 018°02'917.5
2017-Oct-15 10:30N 55°05' E 018°14'917.4
2017-Oct-15 10:00N 54°59' E 018°26'816.8
2017-Oct-15 09:30N 54°54' E 018°38'917.3
2017-Oct-15 09:00N 54°48' E 018°48'917.2
2017-Oct-15 08:30N 54°41' E 018°57'917.4
2017-Oct-15 08:00N 54°33' E 018°51'816.1
2017-Oct-15 07:30N 54°32' E 018°37'4 7.8
2017-Oct-15 06:58N 54°33' E 018°30'0 0.0
2017-Oct-15 06:28N 54°33' E 018°30'0 0.0
2017-Oct-15 05:58N 54°33' E 018°30'0 0.0
2017-Oct-15 05:30N 54°33' E 018°30'2 4.5
2017-Oct-15 05:00N 54°32' E 018°34'510.1
2017-Oct-15 04:31N 54°32' E 018°43'714.6
2017-Oct-15 04:00N 54°36' E 018°53'816.2
2017-Oct-15 03:30N 54°45' E 018°52'917.2
2017-Oct-15 03:00N 54°51' E 018°43'918.0
2017-Oct-15 02:30N 54°58' E 018°32'918.0
2017-Oct-15 02:00N 55°03' E 018°19'917.9
2017-Oct-15 01:29N 55°08' E 018°05'6717.7
2017-Oct-14 21:41N 55°45' E 016°26'318.1
2017-Oct-14 21:31N 55°47' E 016°21'918.0
2017-Oct-14 21:01N 55°52' E 016°08'918.0
2017-Oct-14 20:30N 55°57' E 015°54'918.1
2017-Oct-14 20:00N 56°01' E 015°41'713.7
2017-Oct-14 19:30N 56°08' E 015°36'3 5.1
2017-Oct-14 19:00N 56°10' E 015°38'0 0.0
2017-Oct-14 18:30N 56°10' E 015°38'0 0.0
2017-Oct-14 18:00N 56°10' E 015°38'0 0.0
2017-Oct-14 17:31N 56°10' E 015°38'4 8.6
2017-Oct-14 17:00N 56°06' E 015°34'815.3
2017-Oct-14 16:30N 56°00' E 015°44'816.9
2017-Oct-14 16:01N 55°57' E 015°57'816.8
2017-Oct-14 15:31N 55°52' E 016°09'816.8
2017-Oct-14 15:01N 55°47' E 016°21'7417.3
2017-Oct-14 10:46N 55°07' E 018°10'718.0
2017-Oct-14 10:23N 55°03' E 018°20'617.6
2017-Oct-14 10:00N 54°59' E 018°29'917.2
2017-Oct-14 09:31N 54°53' E 018°40'917.3
2017-Oct-14 09:01N 54°46' E 018°50'917.1
2017-Oct-14 08:31N 54°39' E 018°57'917.8
2017-Oct-14 08:01N 54°31' E 018°48'815.9
2017-Oct-14 07:31N 54°32' E 018°35'3 5.3
2017-Oct-14 07:00N 54°33' E 018°30'0 0.0
2017-Oct-14 06:30N 54°33' E 018°30'0 0.0
2017-Oct-14 06:00N 54°33' E 018°30'0 0.0
2017-Oct-14 05:30N 54°33' E 018°30'3 5.6
2017-Oct-14 05:00N 54°32' E 018°35'611.4
2017-Oct-14 04:31N 54°33' E 018°45'816.4
2017-Oct-14 04:01N 54°38' E 018°55'816.6
2017-Oct-14 03:31N 54°46' E 018°49'918.0
2017-Oct-14 03:00N 54°53' E 018°39'917.8
2017-Oct-14 02:31N 54°59' E 018°28'918.3
2017-Oct-14 01:59N 55°04' E 018°15'917.7
2017-Oct-14 01:29N 55°10' E 018°02'1617.8
2017-Oct-14 00:34N 55°19' E 017°38'217.8
2017-Oct-14 00:27N 55°20' E 017°35'1117.8
2017-Oct-13 23:51N 55°25' E 017°19'2817.3
2017-Oct-13 22:13N 55°41' E 016°37'417.6
2017-Oct-13 22:00N 55°42' E 016°31'917.8
2017-Oct-13 21:31N 55°47' E 016°18'917.4
2017-Oct-13 21:00N 55°52' E 016°05'917.7
2017-Oct-13 20:30N 55°57' E 015°52'917.4
2017-Oct-13 20:01N 56°02' E 015°39'713.2
2017-Oct-13 19:30N 56°08' E 015°36'2 4.0
2017-Oct-13 19:00N 56°10' E 015°38'0 0.0
2017-Oct-13 18:30N 56°10' E 015°38'0 0.0
2017-Oct-13 18:00N 56°10' E 015°38'0 0.0
2017-Oct-13 17:31N 56°10' E 015°38'4 7.5
2017-Oct-13 17:00N 56°07' E 015°35'714.6
2017-Oct-13 16:31N 56°01' E 015°42'816.7
2017-Oct-13 16:01N 55°56' E 015°55'917.6
2017-Oct-13 15:30N 55°51' E 016°08'917.5
2017-Oct-13 15:01N 55°47' E 016°21'917.3
2017-Oct-13 14:30N 55°42' E 016°34'817.0
2017-Oct-13 14:01N 55°37' E 016°46'5717.2
2017-Oct-13 10:42N 55°06' E 018°11'617.6
2017-Oct-13 10:20N 55°02' E 018°20'617.2
2017-Oct-13 10:00N 54°59' E 018°28'817.0
2017-Oct-13 09:31N 54°53' E 018°39'917.6
2017-Oct-13 09:00N 54°47' E 018°49'917.3
2017-Oct-13 08:31N 54°40' E 018°57'917.3
2017-Oct-13 08:00N 54°32' E 018°50'815.0
2017-Oct-13 07:30N 54°32' E 018°37'4 7.2
2017-Oct-13 06:59N 54°33' E 018°30'0 0.0
2017-Oct-13 06:29N 54°33' E 018°30'0 0.0
2017-Oct-13 05:59N 54°33' E 018°30'0 0.0
2017-Oct-13 05:31N 54°33' E 018°30'2 4.5
2017-Oct-13 05:00N 54°32' E 018°34'510.1
2017-Oct-13 04:30N 54°32' E 018°43'815.0
2017-Oct-13 04:00N 54°37' E 018°53'714.6
2017-Oct-13 03:30N 54°44' E 018°52'817.0
2017-Oct-13 03:00N 54°51' E 018°43'918.6
2017-Oct-13 02:30N 54°58' E 018°32'1019.6
2017-Oct-13 02:00N 55°03' E 018°18'6818.7
2017-Oct-12 22:23N 55°40' E 016°38'718.4
2017-Oct-12 22:01N 55°44' E 016°28'918.2
2017-Oct-12 21:30N 55°49' E 016°14'918.1
2017-Oct-12 21:00N 55°54' E 016°01'917.7
2017-Oct-12 20:30N 55°59' E 015°48'917.3
2017-Oct-12 20:00N 56°04' E 015°35'612.4
2017-Oct-12 19:30N 56°10' E 015°37'0 0.5
2017-Oct-12 18:59N 56°10' E 015°38'0 0.0
2017-Oct-12 18:29N 56°10' E 015°38'0 0.0
2017-Oct-12 17:59N 56°10' E 015°38'0 0.2
2017-Oct-12 17:31N 56°10' E 015°38'612.1
2017-Oct-12 17:00N 56°04' E 015°34'917.1
2017-Oct-12 16:30N 55°59' E 015°47'917.4
2017-Oct-12 16:00N 55°55' E 016°00'917.1
2017-Oct-12 15:30N 55°50' E 016°13'816.5
2017-Oct-12 15:00N 55°45' E 016°25'1016.5
2017-Oct-12 14:24N 55°40' E 016°40'6416.7
2017-Oct-12 10:35N 55°05' E 018°13'317.3
2017-Oct-12 10:26N 55°03' E 018°17'717.2
2017-Oct-12 10:00N 54°59' E 018°28'917.3
2017-Oct-12 09:30N 54°53' E 018°39'917.7
2017-Oct-12 09:00N 54°47' E 018°49'917.4
2017-Oct-12 08:30N 54°40' E 018°57'917.8
2017-Oct-12 08:00N 54°32' E 018°49'815.3
2017-Oct-12 07:30N 54°32' E 018°36'3 6.5
2017-Oct-12 07:01N 54°33' E 018°30'0 0.0
2017-Oct-12 06:29N 54°33' E 018°30'0 0.0
2017-Oct-12 05:59N 54°33' E 018°30'0 0.0
2017-Oct-12 05:31N 54°33' E 018°30'2 3.3
2017-Oct-12 05:00N 54°32' E 018°33'713.6
2017-Oct-12 04:31N 54°32' E 018°45'917.9
2017-Oct-12 04:01N 54°39' E 018°55'815.9
2017-Oct-12 03:31N 54°46' E 018°49'917.7
2017-Oct-12 03:01N 54°53' E 018°40'917.6
2017-Oct-12 02:31N 54°59' E 018°29'917.9
2017-Oct-12 02:01N 55°04' E 018°16'917.4
2017-Oct-12 01:30N 55°09' E 018°03'6017.3
2017-Oct-11 22:01N 55°42' E 016°34'117.5
2017-Oct-11 21:58N 55°42' E 016°33'817.5
2017-Oct-11 21:30N 55°47' E 016°21'917.4
2017-Oct-11 21:00N 55°52' E 016°08'917.1
2017-Oct-11 20:30N 55°56' E 015°55'917.0
2017-Oct-11 20:00N 56°01' E 015°42'714.1
2017-Oct-11 19:30N 56°06' E 015°35'4 7.8
2017-Oct-11 18:59N 56°10' E 015°38'0 0.0
2017-Oct-11 18:29N 56°10' E 015°38'0 0.0
2017-Oct-11 17:59N 56°10' E 015°38'0 0.0
2017-Oct-11 17:30N 56°10' E 015°38'4 7.8
2017-Oct-11 17:01N 56°06' E 015°35'44 2.3
2017-Oct-10 22:09N 55°41' E 016°38'217.1
2017-Oct-10 22:00N 55°42' E 016°34'917.5
2017-Oct-10 21:30N 55°47' E 016°21'917.3
2017-Oct-10 21:00N 55°51' E 016°09'816.9
2017-Oct-10 20:30N 55°56' E 015°56'816.9
2017-Oct-10 20:00N 56°01' E 015°43'714.5
2017-Oct-10 19:30N 56°06' E 015°34'5 8.7
2017-Oct-10 18:59N 56°10' E 015°38'0 0.0
2017-Oct-10 18:29N 56°10' E 015°38'0 0.0
2017-Oct-10 17:59N 56°10' E 015°38'0 0.0
2017-Oct-10 17:30N 56°10' E 015°38'3 6.9
2017-Oct-10 17:00N 56°07' E 015°35'714.9
2017-Oct-10 16:30N 56°01' E 015°43'917.5
2017-Oct-10 16:00N 55°56' E 015°56'917.7
2017-Oct-10 15:30N 55°51' E 016°09'917.8
2017-Oct-10 15:00N 55°46' E 016°22'7418.0
2017-Oct-10 10:54N 55°06' E 018°11'718.6
2017-Oct-10 10:30N 55°02' E 018°21'918.1
2017-Oct-10 10:00N 54°57' E 018°34'918.2
2017-Oct-10 09:31N 54°50' E 018°45'918.0
2017-Oct-10 09:00N 54°43' E 018°55'714.4
2017-Oct-10 08:30N 54°36' E 018°54'713.9
2017-Oct-10 08:00N 54°31' E 018°45'612.9
2017-Oct-10 07:30N 54°32' E 018°34'2 3.9
2017-Oct-10 06:59N 54°33' E 018°30'0 0.0
2017-Oct-10 06:29N 54°33' E 018°30'0 0.0
2017-Oct-10 05:59N 54°33' E 018°30'0 0.0
2017-Oct-10 05:30N 54°33' E 018°30'2 4.1
2017-Oct-10 05:00N 54°32' E 018°34'714.0
2017-Oct-10 04:30N 54°32' E 018°46'816.1
2017-Oct-10 04:00N 54°38' E 018°55'815.9
2017-Oct-10 03:31N 54°46' E 018°50'917.0
2017-Oct-10 03:00N 54°52' E 018°40'917.6
2017-Oct-10 02:30N 54°59' E 018°30'1118.1
2017-Oct-10 01:55N 55°05' E 018°14'6817.6
2017-Oct-09 22:02N 55°41' E 016°34'117.6
2017-Oct-09 22:00N 55°42' E 016°33'  
Track history (hours):
 
Tides and Currents Weather Stations Pressure Air Temp Water Temp Dewpoint Dewpoint Depression Visibility Wind Speed Wind Dir Waves Ship Positions

Stena Germanica

Last reported at 2017-Oct-19 21:31 UTC. Time now 2017-Oct-19 21:44 UTC.
Position N 55°46' E 016°20'.

Length 176 m; draft 6.7 m.

Type: Ship (hazmat cat A). MMSI: 265292000.

Date/timePositionNaut miles runAvg speedWind from/ knotsBaromVisibWave heightAir tempDewpointWater temp
2017-Oct-19 21:31N 55°46' E 016°20'917.4
2017-Oct-19 21:00N 55°50' E 016°07'917.3
2017-Oct-19 20:31N 55°56' E 015°56'917.2
2017-Oct-19 20:01N 56°01' E 015°43'714.3
2017-Oct-19 19:31N 56°06' E 015°34'5 9.0
2017-Oct-19 19:00N 56°10' E 015°38'0 0.0
2017-Oct-19 18:30N 56°10' E 015°38'0 0.0
2017-Oct-19 18:00N 56°10' E 015°38'0 0.0
2017-Oct-19 17:30N 56°10' E 015°38'4 8.4
2017-Oct-19 17:00N 56°06' E 015°34'815.2
2017-Oct-19 16:31N 56°01' E 015°44'917.1
2017-Oct-19 16:01N 55°56' E 015°56'917.5
2017-Oct-19 15:31N 55°51' E 016°09'917.6
2017-Oct-19 15:00N 55°46' E 016°22'917.1
2017-Oct-19 14:31N 55°41' E 016°35'917.0
2017-Oct-19 14:00N 55°37' E 016°48'916.8
2017-Oct-19 13:29N 55°32' E 017°00'817.1
2017-Oct-19 13:01N 55°28' E 017°13'1117.4
2017-Oct-19 12:23N 55°22' E 017°29'717.2
2017-Oct-19 11:59N 55°18' E 017°39'917.2
2017-Oct-19 11:28N 55°13' E 017°52'817.2
2017-Oct-19 11:00N 55°09' E 018°03'917.4
2017-Oct-19 10:30N 55°04' E 018°16'917.2
2017-Oct-19 10:00N 54°59' E 018°29'917.7
2017-Oct-19 09:30N 54°53' E 018°40'917.6
2017-Oct-19 09:01N 54°46' E 018°49'816.9
2017-Oct-19 08:31N 54°39' E 018°57'917.7
2017-Oct-19 08:00N 54°32' E 018°48'815.5
2017-Oct-19 07:30N 54°32' E 018°35'3 5.3
2017-Oct-19 07:00N 54°33' E 018°30'0 0.0
2017-Oct-19 06:30N 54°33' E 018°30'0 0.0
2017-Oct-19 06:00N 54°33' E 018°30'0 0.0
2017-Oct-19 05:30N 54°33' E 018°30'2 3.2
2017-Oct-19 05:00N 54°32' E 018°33'612.0
2017-Oct-19 04:30N 54°32' E 018°43'815.5
2017-Oct-19 04:00N 54°37' E 018°54'714.3
2017-Oct-19 03:30N 54°44' E 018°51'917.3
2017-Oct-19 03:00N 54°51' E 018°42'917.2
2017-Oct-19 02:30N 54°58' E 018°32'917.1
2017-Oct-19 02:00N 55°02' E 018°20'7217.5
2017-Oct-18 21:51N 55°42' E 016°33'617.8
2017-Oct-18 21:30N 55°46' E 016°24'917.5
2017-Oct-18 21:00N 55°50' E 016°11'917.6
2017-Oct-18 20:30N 55°55' E 015°58'917.3
2017-Oct-18 20:00N 55°60' E 015°45'815.7
2017-Oct-18 19:30N 56°05' E 015°34'611.2
2017-Oct-18 19:00N 56°10' E 015°38'0 0.0
2017-Oct-18 18:29N 56°10' E 015°38'0 0.0
2017-Oct-18 17:59N 56°10' E 015°38'0 0.0
2017-Oct-18 17:30N 56°10' E 015°38'4 8.8
2017-Oct-18 17:01N 56°06' E 015°34'816.2
2017-Oct-18 16:30N 56°00' E 015°44'918.0
2017-Oct-18 16:00N 55°55' E 015°57'918.1
2017-Oct-18 15:30N 55°50' E 016°11'918.3
2017-Oct-18 15:00N 55°46' E 016°25'6917.7
2017-Oct-18 11:08N 55°08' E 018°06'317.2
2017-Oct-18 10:58N 55°06' E 018°10'817.5
2017-Oct-18 10:30N 55°02' E 018°22'917.5
2017-Oct-18 10:00N 54°57' E 018°34'917.4
2017-Oct-18 09:30N 54°52' E 018°47'917.2
2017-Oct-18 09:00N 54°45' E 018°56'816.0
2017-Oct-18 08:30N 54°37' E 018°55'816.4
2017-Oct-18 08:00N 54°32' E 018°44'713.3
2017-Oct-18 07:30N 54°32' E 018°33'2 2.8
2017-Oct-18 06:58N 54°33' E 018°30'0 0.0
2017-Oct-18 06:28N 54°33' E 018°30'0 0.0
2017-Oct-18 05:58N 54°33' E 018°30'0 0.0
2017-Oct-18 05:29N 54°33' E 018°30'1 3.1
2017-Oct-18 05:01N 54°32' E 018°33'612.4
2017-Oct-18 04:30N 54°32' E 018°43'714.7
2017-Oct-18 04:01N 54°37' E 018°54'713.9
2017-Oct-18 03:30N 54°43' E 018°52'816.2
2017-Oct-18 03:00N 54°50' E 018°43'816.7
2017-Oct-18 02:30N 54°56' E 018°34'916.8
2017-Oct-18 02:00N 55°01' E 018°22'1217.5
2017-Oct-18 01:20N 55°07' E 018°05'617.3
2017-Oct-18 01:01N 55°11' E 017°57'1218.0
2017-Oct-18 00:20N 55°17' E 017°39'4218.4
2017-Oct-17 22:03N 55°40' E 016°37'118.4
2017-Oct-17 22:00N 55°40' E 016°35'918.4
2017-Oct-17 21:31N 55°45' E 016°22'918.3
2017-Oct-17 21:01N 55°51' E 016°09'918.2
2017-Oct-17 20:31N 55°56' E 015°56'918.0
2017-Oct-17 20:00N 56°01' E 015°42'714.2
2017-Oct-17 19:31N 56°07' E 015°35'3 6.3
2017-Oct-17 18:58N 56°10' E 015°38'0 0.0
2017-Oct-17 18:28N 56°10' E 015°38'0 0.0
2017-Oct-17 17:58N 56°10' E 015°38'0 0.0
2017-Oct-17 17:29N 56°10' E 015°38'4 8.7
2017-Oct-17 17:00N 56°06' E 015°35'815.1
2017-Oct-17 16:30N 56°01' E 015°43'816.8
2017-Oct-17 16:00N 55°56' E 015°55'816.8
2017-Oct-17 15:30N 55°51' E 016°08'816.8
2017-Oct-17 15:00N 55°46' E 016°21'917.1
2017-Oct-17 14:30N 55°42' E 016°34'1917.1
2017-Oct-17 13:25N 55°32' E 017°01'817.1
2017-Oct-17 12:58N 55°27' E 017°13'817.4
2017-Oct-17 12:30N 55°23' E 017°24'917.2
2017-Oct-17 12:00N 55°18' E 017°37'917.1
2017-Oct-17 11:30N 55°14' E 017°50'1317.1
2017-Oct-17 10:47N 55°07' E 018°08'617.3
2017-Oct-17 10:25N 55°03' E 018°17'717.3
2017-Oct-17 10:00N 55°00' E 018°28'917.3
2017-Oct-17 09:30N 54°55' E 018°40'917.9
2017-Oct-17 09:00N 54°48' E 018°50'917.7
2017-Oct-17 08:30N 54°41' E 018°57'917.7
2017-Oct-17 08:00N 54°33' E 018°50'815.4
2017-Oct-17 07:30N 54°32' E 018°37'4 7.1
2017-Oct-17 06:58N 54°33' E 018°30'0 0.0
2017-Oct-17 06:28N 54°33' E 018°30'0 0.0
2017-Oct-17 05:58N 54°33' E 018°30'0 0.0
2017-Oct-17 05:29N 54°33' E 018°30'2 3.4
2017-Oct-17 05:01N 54°32' E 018°33'713.3
2017-Oct-17 04:31N 54°32' E 018°44'714.9
2017-Oct-17 04:01N 54°37' E 018°54'816.8
2017-Oct-17 03:30N 54°46' E 018°50'917.6
2017-Oct-17 03:01N 54°53' E 018°41'917.3
2017-Oct-17 02:30N 54°58' E 018°30'917.2
2017-Oct-17 01:59N 55°04' E 018°17'817.3
2017-Oct-17 01:30N 55°08' E 018°05'817.0
2017-Oct-17 01:01N 55°13' E 017°53'1417.4
2017-Oct-17 00:11N 55°21' E 017°32'2916.9
2017-Oct-16 22:30N 55°36' E 016°49'817.0
2017-Oct-16 22:00N 55°40' E 016°36'817.0
2017-Oct-16 21:31N 55°45' E 016°24'917.3
2017-Oct-16 21:01N 55°51' E 016°13'816.5
2017-Oct-16 20:31N 55°55' E 016°00'816.5
2017-Oct-16 20:01N 55°59' E 015°47'816.5
2017-Oct-16 19:31N 56°04' E 015°35'612.5
2017-Oct-16 19:01N 56°10' E 015°37'0 0.6
2017-Oct-16 18:30N 56°10' E 015°38'0 0.0
2017-Oct-16 18:00N 56°10' E 015°38'0 0.0
2017-Oct-16 17:30N 56°10' E 015°38'0 0.0
2017-Oct-16 17:00N 56°10' E 015°38'5 9.5
2017-Oct-16 16:31N 56°06' E 015°34'815.5
2017-Oct-16 16:00N 56°00' E 015°44'816.8
2017-Oct-16 15:30N 55°56' E 015°57'917.5
2017-Oct-16 15:00N 55°51' E 016°10'1818.2
2017-Oct-16 14:00N 55°41' E 016°37'1018.1
2017-Oct-16 13:27N 55°35' E 016°51'817.9
2017-Oct-16 13:00N 55°31' E 017°03'1118.2
2017-Oct-16 12:22N 55°25' E 017°20'1218.4
2017-Oct-16 11:42N 55°18' E 017°38'1218.2
2017-Oct-16 11:03N 55°11' E 017°56'118.0
2017-Oct-16 11:00N 55°11' E 017°57'1217.9
2017-Oct-16 10:22N 55°05' E 018°14'618.0
2017-Oct-16 10:00N 55°01' E 018°24'918.0
2017-Oct-16 09:30N 54°56' E 018°36'918.0
2017-Oct-16 09:00N 54°49' E 018°46'918.6
2017-Oct-16 08:30N 54°42' E 018°56'917.7
2017-Oct-16 08:00N 54°34' E 018°51'815.7
2017-Oct-16 07:30N 54°32' E 018°38'4 9.0
2017-Oct-16 07:01N 54°33' E 018°30'0 0.0
2017-Oct-16 06:30N 54°33' E 018°30'0 0.0
2017-Oct-16 06:00N 54°33' E 018°30'0 0.0
2017-Oct-16 05:30N 54°33' E 018°30'1 3.0
2017-Oct-16 05:00N 54°32' E 018°33'612.4
2017-Oct-16 04:30N 54°32' E 018°43'714.9
2017-Oct-16 04:00N 54°37' E 018°53'714.0
2017-Oct-16 03:31N 54°44' E 018°52'816.6
2017-Oct-16 03:00N 54°50' E 018°42'816.8
2017-Oct-16 02:30N 54°57' E 018°33'917.0
2017-Oct-16 02:00N 55°02' E 018°22'917.1
2017-Oct-16 01:30N 55°07' E 018°09'917.2
2017-Oct-16 01:00N 55°11' E 017°57'1017.5
2017-Oct-16 00:25N 55°17' E 017°42'817.5
2017-Oct-15 23:59N 55°21' E 017°30'3717.0
2017-Oct-15 21:49N 55°41' E 016°35'517.4
2017-Oct-15 21:30N 55°44' E 016°27'917.2
2017-Oct-15 21:00N 55°49' E 016°15'917.3
2017-Oct-15 20:30N 55°54' E 016°02'917.4
2017-Oct-15 20:00N 55°58' E 015°49'917.2
2017-Oct-15 19:30N 56°03' E 015°36'713.0
2017-Oct-15 19:00N 56°10' E 015°37'0 0.9
2017-Oct-15 18:30N 56°10' E 015°38'0 0.0
2017-Oct-15 18:00N 56°10' E 015°38'0 0.0
2017-Oct-15 17:30N 56°10' E 015°38'5 9.6
2017-Oct-15 17:00N 56°06' E 015°34'714.2
2017-Oct-15 16:30N 56°01' E 015°43'815.4
2017-Oct-15 16:00N 55°56' E 015°55'816.6
2017-Oct-15 15:30N 55°52' E 016°07'917.3
2017-Oct-15 15:00N 55°47' E 016°20'1717.3
2017-Oct-15 14:00N 55°38' E 016°46'917.0
2017-Oct-15 13:29N 55°34' E 016°60'817.0
2017-Oct-15 13:00N 55°29' E 017°12'917.2
2017-Oct-15 12:30N 55°25' E 017°25'917.4
2017-Oct-15 12:00N 55°20' E 017°38'917.2
2017-Oct-15 11:30N 55°15' E 017°50'917.3
2017-Oct-15 11:00N 55°10' E 018°02'917.5
2017-Oct-15 10:30N 55°05' E 018°14'917.4
2017-Oct-15 10:00N 54°59' E 018°26'816.8
2017-Oct-15 09:30N 54°54' E 018°38'917.3
2017-Oct-15 09:00N 54°48' E 018°48'917.2
2017-Oct-15 08:30N 54°41' E 018°57'917.4
2017-Oct-15 08:00N 54°33' E 018°51'816.1
2017-Oct-15 07:30N 54°32' E 018°37'4 7.8
2017-Oct-15 06:58N 54°33' E 018°30'0 0.0
2017-Oct-15 06:28N 54°33' E 018°30'0 0.0
2017-Oct-15 05:58N 54°33' E 018°30'0 0.0
2017-Oct-15 05:30N 54°33' E 018°30'2 4.5
2017-Oct-15 05:00N 54°32' E 018°34'510.1
2017-Oct-15 04:31N 54°32' E 018°43'714.6
2017-Oct-15 04:00N 54°36' E 018°53'816.2
2017-Oct-15 03:30N 54°45' E 018°52'917.2
2017-Oct-15 03:00N 54°51' E 018°43'918.0
2017-Oct-15 02:30N 54°58' E 018°32'918.0
2017-Oct-15 02:00N 55°03' E 018°19'917.9
2017-Oct-15 01:29N 55°08' E 018°05'6717.7
2017-Oct-14 21:41N 55°45' E 016°26'318.1
2017-Oct-14 21:31N 55°47' E 016°21'918.0
2017-Oct-14 21:01N 55°52' E 016°08'918.0
2017-Oct-14 20:30N 55°57' E 015°54'918.1
2017-Oct-14 20:00N 56°01' E 015°41'713.7
2017-Oct-14 19:30N 56°08' E 015°36'3 5.1
2017-Oct-14 19:00N 56°10' E 015°38'0 0.0
2017-Oct-14 18:30N 56°10' E 015°38'0 0.0
2017-Oct-14 18:00N 56°10' E 015°38'0 0.0
2017-Oct-14 17:31N 56°10' E 015°38'4 8.6
2017-Oct-14 17:00N 56°06' E 015°34'815.3
2017-Oct-14 16:30N 56°00' E 015°44'816.9
2017-Oct-14 16:01N 55°57' E 015°57'816.8
2017-Oct-14 15:31N 55°52' E 016°09'816.8
2017-Oct-14 15:01N 55°47' E 016°21'7417.3
2017-Oct-14 10:46N 55°07' E 018°10'718.0
2017-Oct-14 10:23N 55°03' E 018°20'617.6
2017-Oct-14 10:00N 54°59' E 018°29'917.2
2017-Oct-14 09:31N 54°53' E 018°40'917.3
2017-Oct-14 09:01N 54°46' E 018°50'917.1
2017-Oct-14 08:31N 54°39' E 018°57'917.8
2017-Oct-14 08:01N 54°31' E 018°48'815.9
2017-Oct-14 07:31N 54°32' E 018°35'3 5.3
2017-Oct-14 07:00N 54°33' E 018°30'0 0.0
2017-Oct-14 06:30N 54°33' E 018°30'0 0.0
2017-Oct-14 06:00N 54°33' E 018°30'0 0.0
2017-Oct-14 05:30N 54°33' E 018°30'3 5.6
2017-Oct-14 05:00N 54°32' E 018°35'611.4
2017-Oct-14 04:31N 54°33' E 018°45'816.4
2017-Oct-14 04:01N 54°38' E 018°55'816.6
2017-Oct-14 03:31N 54°46' E 018°49'918.0
2017-Oct-14 03:00N 54°53' E 018°39'917.8
2017-Oct-14 02:31N 54°59' E 018°28'918.3
2017-Oct-14 01:59N 55°04' E 018°15'917.7
2017-Oct-14 01:29N 55°10' E 018°02'1617.8
2017-Oct-14 00:34N 55°19' E 017°38'217.8
2017-Oct-14 00:27N 55°20' E 017°35'1117.8
2017-Oct-13 23:51N 55°25' E 017°19'2817.3
2017-Oct-13 22:13N 55°41' E 016°37'417.6
2017-Oct-13 22:00N 55°42' E 016°31'917.8
2017-Oct-13 21:31N 55°47' E 016°18'917.4
2017-Oct-13 21:00N 55°52' E 016°05'917.7
2017-Oct-13 20:30N 55°57' E 015°52'917.4
2017-Oct-13 20:01N 56°02' E 015°39'713.2
2017-Oct-13 19:30N 56°08' E 015°36'2 4.0
2017-Oct-13 19:00N 56°10' E 015°38'0 0.0
2017-Oct-13 18:30N 56°10' E 015°38'0 0.0
2017-Oct-13 18:00N 56°10' E 015°38'0 0.0
2017-Oct-13 17:31N 56°10' E 015°38'4 7.5
2017-Oct-13 17:00N 56°07' E 015°35'714.6
2017-Oct-13 16:31N 56°01' E 015°42'816.7
2017-Oct-13 16:01N 55°56' E 015°55'917.6
2017-Oct-13 15:30N 55°51' E 016°08'917.5
2017-Oct-13 15:01N 55°47' E 016°21'917.3
2017-Oct-13 14:30N 55°42' E 016°34'817.0
2017-Oct-13 14:01N 55°37' E 016°46'5717.2
2017-Oct-13 10:42N 55°06' E 018°11'617.6
2017-Oct-13 10:20N 55°02' E 018°20'617.2
2017-Oct-13 10:00N 54°59' E 018°28'817.0
2017-Oct-13 09:31N 54°53' E 018°39'917.6
2017-Oct-13 09:00N 54°47' E 018°49'917.3
2017-Oct-13 08:31N 54°40' E 018°57'917.3
2017-Oct-13 08:00N 54°32' E 018°50'815.0
2017-Oct-13 07:30N 54°32' E 018°37'4 7.2
2017-Oct-13 06:59N 54°33' E 018°30'0 0.0
2017-Oct-13 06:29N 54°33' E 018°30'0 0.0
2017-Oct-13 05:59N 54°33' E 018°30'0 0.0
2017-Oct-13 05:31N 54°33' E 018°30'2 4.5
2017-Oct-13 05:00N 54°32' E 018°34'510.1
2017-Oct-13 04:30N 54°32' E 018°43'815.0
2017-Oct-13 04:00N 54°37' E 018°53'714.6
2017-Oct-13 03:30N 54°44' E 018°52'817.0
2017-Oct-13 03:00N 54°51' E 018°43'918.6
2017-Oct-13 02:30N 54°58' E 018°32'1019.6
2017-Oct-13 02:00N 55°03' E 018°18'6818.7
2017-Oct-12 22:23N 55°40' E 016°38'718.4
2017-Oct-12 22:01N 55°44' E 016°28'918.2
2017-Oct-12 21:30N 55°49' E 016°14'918.1
2017-Oct-12 21:00N 55°54' E 016°01'917.7
2017-Oct-12 20:30N 55°59' E 015°48'917.3
2017-Oct-12 20:00N 56°04' E 015°35'612.4
2017-Oct-12 19:30N 56°10' E 015°37'0 0.5
2017-Oct-12 18:59N 56°10' E 015°38'0 0.0
2017-Oct-12 18:29N 56°10' E 015°38'0 0.0
2017-Oct-12 17:59N 56°10' E 015°38'0 0.2
2017-Oct-12 17:31N 56°10' E 015°38'612.1
2017-Oct-12 17:00N 56°04' E 015°34'917.1
2017-Oct-12 16:30N 55°59' E 015°47'917.4
2017-Oct-12 16:00N 55°55' E 016°00'917.1
2017-Oct-12 15:30N 55°50' E 016°13'816.5
2017-Oct-12 15:00N 55°45' E 016°25'1016.5
2017-Oct-12 14:24N 55°40' E 016°40'6416.7
2017-Oct-12 10:35N 55°05' E 018°13'317.3
2017-Oct-12 10:26N 55°03' E 018°17'717.2
2017-Oct-12 10:00N 54°59' E 018°28'917.3
2017-Oct-12 09:30N 54°53' E 018°39'917.7
2017-Oct-12 09:00N 54°47' E 018°49'917.4
2017-Oct-12 08:30N 54°40' E 018°57'917.8
2017-Oct-12 08:00N 54°32' E 018°49'815.3
2017-Oct-12 07:30N 54°32' E 018°36'3 6.5
2017-Oct-12 07:01N 54°33' E 018°30'0 0.0
2017-Oct-12 06:29N 54°33' E 018°30'0 0.0
2017-Oct-12 05:59N 54°33' E 018°30'0 0.0
2017-Oct-12 05:31N 54°33' E 018°30'2 3.3
2017-Oct-12 05:00N 54°32' E 018°33'713.6
2017-Oct-12 04:31N 54°32' E 018°45'917.9
2017-Oct-12 04:01N 54°39' E 018°55'815.9
2017-Oct-12 03:31N 54°46' E 018°49'917.7
2017-Oct-12 03:01N 54°53' E 018°40'917.6
2017-Oct-12 02:31N 54°59' E 018°29'917.9
2017-Oct-12 02:01N 55°04' E 018°16'917.4
2017-Oct-12 01:30N 55°09' E 018°03'6017.3
2017-Oct-11 22:01N 55°42' E 016°34'117.5
2017-Oct-11 21:58N 55°42' E 016°33'817.5
2017-Oct-11 21:30N 55°47' E 016°21'917.4
2017-Oct-11 21:00N 55°52' E 016°08'917.1
2017-Oct-11 20:30N 55°56' E 015°55'917.0
2017-Oct-11 20:00N 56°01' E 015°42'714.1
2017-Oct-11 19:30N 56°06' E 015°35'4 7.8
2017-Oct-11 18:59N 56°10' E 015°38'0 0.0
2017-Oct-11 18:29N 56°10' E 015°38'0 0.0
2017-Oct-11 17:59N 56°10' E 015°38'0 0.0
2017-Oct-11 17:30N 56°10' E 015°38'4 7.8
2017-Oct-11 17:01N 56°06' E 015°35'44 2.3
2017-Oct-10 22:09N 55°41' E 016°38'217.1
2017-Oct-10 22:00N 55°42' E 016°34'917.5
2017-Oct-10 21:30N 55°47' E 016°21'917.3
2017-Oct-10 21:00N 55°51' E 016°09'816.9
2017-Oct-10 20:30N 55°56' E 015°56'816.9
2017-Oct-10 20:00N 56°01' E 015°43'714.5
2017-Oct-10 19:30N 56°06' E 015°34'5 8.7
2017-Oct-10 18:59N 56°10' E 015°38'0 0.0
2017-Oct-10 18:29N 56°10' E 015°38'0 0.0
2017-Oct-10 17:59N 56°10' E 015°38'0 0.0
2017-Oct-10 17:30N 56°10' E 015°38'3 6.9
2017-Oct-10 17:00N 56°07' E 015°35'714.9
2017-Oct-10 16:30N 56°01' E 015°43'917.5
2017-Oct-10 16:00N 55°56' E 015°56'917.7
2017-Oct-10 15:30N 55°51' E 016°09'917.8
2017-Oct-10 15:00N 55°46' E 016°22'7418.0
2017-Oct-10 10:54N 55°06' E 018°11'718.6
2017-Oct-10 10:30N 55°02' E 018°21'918.1
2017-Oct-10 10:00N 54°57' E 018°34'918.2
2017-Oct-10 09:31N 54°50' E 018°45'918.0
2017-Oct-10 09:00N 54°43' E 018°55'714.4
2017-Oct-10 08:30N 54°36' E 018°54'713.9
2017-Oct-10 08:00N 54°31' E 018°45'612.9
2017-Oct-10 07:30N 54°32' E 018°34'2 3.9
2017-Oct-10 06:59N 54°33' E 018°30'0 0.0
2017-Oct-10 06:29N 54°33' E 018°30'0 0.0
2017-Oct-10 05:59N 54°33' E 018°30'0 0.0
2017-Oct-10 05:30N 54°33' E 018°30'2 4.1
2017-Oct-10 05:00N 54°32' E 018°34'714.0
2017-Oct-10 04:30N 54°32' E 018°46'816.1
2017-Oct-10 04:00N 54°38' E 018°55'815.9
2017-Oct-10 03:31N 54°46' E 018°50'917.0
2017-Oct-10 03:00N 54°52' E 018°40'917.6
2017-Oct-10 02:30N 54°59' E 018°30'1118.1
2017-Oct-10 01:55N 55°05' E 018°14'6817.6
2017-Oct-09 22:02N 55°41' E 016°34'117.6
2017-Oct-09 22:00N 55°42' E 016°33'  

Dump ship's entire track history